Salisbury, Massachusetts
Current Conditions -  °F | °C
As of 2:54 PM on Sunday 25 Jan 2015 (Local Time) from KLWM Reporting Station
Clear Clear  
Wind Chill: 25°   Ceiling: Unl
Heat Index: 33°   Visibility: 10mi
Dew Point: 10°   Wind: 9mph
Humidity: 38%   Direction: 300°WNW
Pressure: 29.7"   Gusts: NA
Location:  42.83°N, 70.84°W
Report Text: KLWM 251954Z 30008KT 10SM CLR 01/M12 A2970 RMK AO2 SLP059 T00061122
Loading
Personal Weather Stations






























Interactive Weather Map New forecast layout! Learn more

10-Day Weather Forecast

Advertisements
Track Severe Weather on mobile